Time;durP1;ratioP1;P1;durP2;ratioP2;P2;SDS_P1;SDS_P2;PMS_P1;PMS_P2;Temp;Humidity;BMP_temperature;BMP_pressure;BME280_temperature;BME280_humidity;BME280_pressure;Samples;Min_cycle;Max_cycle;Signal;HPM_P1;HPM_P2
2022/06/13 00:01:59;;;;;;;9.38;1.75;;;19.30;98.80;;;;;;4923911;29;20034;-85
2022/06/13 00:04:24;;;;;;;6.80;1.55;;;19.20;99.00;;;;;;4923040;29;20024;-85
2022/06/13 00:06:50;;;;;;;8.15;1.80;;;19.20;98.70;;;;;;4924625;29;20050;-85
2022/06/13 00:09:16;;;;;;;9.38;1.80;;;19.20;98.90;;;;;;4922726;29;20024;-85
2022/06/13 00:11:42;;;;;;;8.13;1.70;;;19.20;98.80;;;;;;4924355;29;20033;-85
2022/06/13 00:14:08;;;;;;;7.88;1.92;;;19.10;98.80;;;;;;4923391;29;20103;-85
2022/06/13 00:16:34;;;;;;;7.38;1.70;;;19.00;98.80;;;;;;4923742;29;20363;-85
2022/06/13 00:19:00;;;;;;;5.78;2.33;;;19.00;99.10;;;;;;4939175;29;20028;-85
2022/06/13 00:21:29;;;;;;;6.28;1.80;;;19.00;98.90;;;;;;4924153;29;20024;-85
2022/06/13 00:23:55;;;;;;;8.02;1.88;;;18.90;98.90;;;;;;4924751;29;20020;-85
2022/06/13 00:26:23;;;;;;;5.43;1.60;;;18.90;98.80;;;;;;4924596;29;20024;-85
2022/06/13 00:28:50;;;;;;;9.57;1.85;;;18.90;98.80;;;;;;4923983;29;20264;-85
2022/06/13 00:31:16;;;;;;;6.60;1.80;;;18.90;98.70;;;;;;4937648;29;20077;-85
2022/06/13 00:33:42;;;;;;;7.50;1.63;;;18.70;99.00;;;;;;4926043;29;20039;-85
2022/06/13 00:36:08;;;;;;;7.70;2.10;;;18.70;99.20;;;;;;4924391;29;20024;-85
2022/06/13 00:38:33;;;;;;;9.45;2.15;;;18.60;98.80;;;;;;4924454;29;20075;-85
2022/06/13 00:40:59;;;;;;;7.78;1.80;;;18.60;99.20;;;;;;4928102;29;20062;-86
2022/06/13 00:43:25;;;;;;;9.55;1.88;;;18.60;99.20;;;;;;4927589;29;20291;-85
2022/06/13 00:45:50;;;;;;;7.07;1.85;;;18.60;99.30;;;;;;4927814;29;20031;-86
2022/06/13 00:48:19;;;;;;;6.53;2.00;;;18.50;99.40;;;;;;4927322;29;20032;-85
2022/06/13 00:50:52;;;;;;;6.80;1.70;;;18.50;99.50;;;;;;4926265;29;20130;-85
2022/06/13 00:53:35;;;;;;;6.82;1.75;;;18.40;99.60;;;;;;4926891;29;20028;-85
2022/06/13 00:56:14;;;;;;;6.82;1.40;;;18.40;99.40;;;;;;4926473;29;20050;-85
2022/06/13 00:58:45;;;;;;;9.85;2.42;;;18.50;99.40;;;;;;4927481;29;20091;-85
2022/06/13 01:01:12;;;;;;;6.30;1.50;;;18.40;99.60;;;;;;4925536;29;20541;-85
2022/06/13 01:03:38;;;;;;;7.97;2.25;;;18.40;99.60;;;;;;4958096;28;20215;-85
2022/06/13 01:06:06;;;;;;;6.63;1.55;;;18.20;99.70;;;;;;4927538;29;20035;-85
2022/06/13 01:08:35;;;;;;;6.28;1.73;;;18.30;99.70;;;;;;4927632;29;20020;-86
2022/06/13 01:11:17;;;;;;;8.13;1.80;;;18.20;99.60;;;;;;4926436;29;20099;-85
2022/06/13 01:13:58;;;;;;;8.40;1.70;;;18.20;99.80;;;;;;4921078;29;20016;-86
2022/06/13 01:16:33;;;;;;;4.47;1.50;;;18.20;99.70;;;;;;4923776;29;20032;-85
2022/06/13 01:19:05;;;;;;;8.20;1.73;;;18.20;99.80;;;;;;4927384;29;20023;-85
2022/06/13 01:22:10;;;;;;;8.55;1.88;;;18.10;99.90;;;;;;4927394;29;20023;-85
2022/06/13 01:24:47;;;;;;;6.25;1.55;;;18.00;99.90;;;;;;4925293;29;20035;-85
2022/06/13 01:27:53;;;;;;;10.52;2.47;;;17.90;99.90;;;;;;4926745;29;20043;-85
2022/06/13 01:30:34;;;;;;;6.45;1.40;;;18.00;99.90;;;;;;4926790;29;20375;-86
2022/06/13 01:33:10;;;;;;;9.82;2.63;;;17.90;99.90;;;;;;4926802;29;20124;-85
2022/06/13 01:36:19;;;;;;;7.25;1.77;;;17.90;99.90;;;;;;4927098;29;20047;-85
2022/06/13 01:39:09;;;;;;;5.88;1.60;;;17.90;99.90;;;;;;4926926;29;20031;-86
2022/06/13 01:41:39;;;;;;;5.82;1.50;;;17.70;99.90;;;;;;4926779;29;20091;-85
2022/06/13 01:44:34;;;;;;;7.05;1.80;;;17.70;99.90;;;;;;4927134;29;20405;-85
2022/06/13 01:47:20;;;;;;;;;;;17.60;99.90;;;;;;4923540;29;20056;-85
2022/06/13 01:49:54;;;;;;;5.50;1.38;;;17.70;99.90;;;;;;4926926;29;19960;-85
2022/06/13 01:52:39;;;;;;;7.97;1.70;;;17.60;99.90;;;;;;4926442;29;20184;-85
2022/06/13 01:55:17;;;;;;;5.75;1.85;;;17.60;99.90;;;;;;4922479;29;20035;-85
2022/06/13 01:57:50;;;;;;;5.40;1.55;;;17.60;99.90;;;;;;4926305;29;20075;-86
2022/06/13 02:00:25;;;;;;;6.75;1.83;;;17.60;99.90;;;;;;4928261;29;20028;-85
2022/06/13 02:03:07;;;;;;;4.85;1.42;;;17.60;99.90;;;;;;4956195;28;20024;-85
2022/06/13 02:05:48;;;;;;;7.13;1.48;;;17.70;99.90;;;;;;4926534;29;20189;-85
2022/06/13 02:08:27;;;;;;;9.77;2.00;;;17.60;99.90;;;;;;4920578;29;20331;-85
2022/06/13 02:11:02;;;;;;;8.60;1.83;;;17.50;99.90;;;;;;4925348;29;20024;-86
2022/06/13 02:13:54;;;;;;;5.50;1.50;;;17.50;99.90;;;;;;4926141;29;20128;-85
2022/06/13 02:16:28;;;;;;;5.75;1.45;;;17.40;99.90;;;;;;4926147;29;20043;-85
2022/06/13 02:19:08;;;;;;;9.75;1.73;;;17.40;99.90;;;;;;4925973;29;20017;-85
2022/06/13 02:21:45;;;;;;;8.63;1.92;;;17.40;99.90;;;;;;4925373;29;20036;-85
2022/06/13 02:24:18;;;;;;;4.65;1.70;;;17.40;99.90;;;;;;4925757;29;20016;-85
2022/06/13 02:26:46;;;;;;;7.80;1.75;;;17.30;99.90;;;;;;4926048;29;20300;-85
2022/06/13 02:29:24;;;;;;;10.00;2.10;;;17.20;99.90;;;;;;4925497;29;20032;-86
2022/06/13 02:32:01;;;;;;;8.25;2.28;;;17.20;99.90;;;;;;4936471;29;20257;-85
2022/06/13 02:34:45;;;;;;;5.13;1.50;;;17.20;99.90;;;;;;4920741;29;20024;-85
2022/06/13 02:37:16;;;;;;;6.53;1.80;;;17.20;99.90;;;;;;4925799;29;20319;-85
2022/06/13 02:40:02;;;;;;;5.53;1.83;;;17.20;99.90;;;;;;4925676;29;20300;-86
2022/06/13 02:42:38;;;;;;;5.78;1.50;;;17.20;99.90;;;;;;4925837;29;20024;-85
2022/06/13 02:45:10;;;;;;;8.20;2.08;;;17.20;99.90;;;;;;4925715;29;20255;-85
2022/06/13 02:47:57;;;;;;;4.63;1.65;;;17.20;99.90;;;;;;4921908;29;20036;-85
2022/06/13 02:50:45;;;;;;;6.13;1.50;;;17.20;99.90;;;;;;4925851;29;20039;-85
2022/06/13 02:53:22;;;;;;;9.77;1.83;;;17.10;99.90;;;;;;4925866;29;20028;-85
2022/06/13 02:56:04;;;;;;;5.18;1.45;;;17.00;99.90;;;;;;4925354;29;20188;-85
2022/06/13 02:58:33;;;;;;;8.90;1.75;;;16.90;99.90;;;;;;4925301;29;20024;-85
2022/06/13 03:01:02;;;;;;;6.60;1.40;;;16.80;99.90;;;;;;4924755;29;20039;-85
2022/06/13 03:03:44;;;;;;;9.05;1.58;;;16.80;99.90;;;;;;4924808;29;20055;-85
2022/06/13 03:06:26;;;;;;;7.15;2.08;;;16.80;99.90;;;;;;4925608;29;20028;-85
2022/06/13 03:09:14;;;;;;;6.82;1.67;;;16.70;99.90;;;;;;4925357;29;20264;-85
2022/06/13 03:11:55;;;;;;;8.52;1.90;;;16.70;99.90;;;;;;4924367;29;20051;-85
2022/06/13 03:15:03;;;;;;;7.10;2.13;;;16.70;99.90;;;;;;4929275;29;20096;-85
2022/06/13 03:17:40;;;;;;;3.70;1.40;;;16.60;99.90;;;;;;4920287;29;20048;-85
2022/06/13 03:20:14;;;;;;;6.25;1.77;;;16.60;99.90;;;;;;4925767;29;20043;-85
2022/06/13 03:23:08;;;;;;;5.88;1.88;;;16.50;99.90;;;;;;4924368;29;20035;-86
2022/06/13 03:25:42;;;;;;;6.03;1.63;;;16.60;99.90;;;;;;4920738;29;20024;-85
2022/06/13 03:28:16;;;;;;;9.88;2.30;;;16.50;99.90;;;;;;4924804;29;20042;-85
2022/06/13 03:30:51;;;;;;;10.25;2.00;;;16.50;99.90;;;;;;4924891;29;20095;-85
2022/06/13 03:33:40;;;;;;;6.82;2.03;;;16.60;99.90;;;;;;4924739;29;20052;-85
2022/06/13 03:36:24;;;;;;;6.07;1.38;;;16.60;99.90;;;;;;4918646;29;20044;-85
2022/06/13 03:38:59;;;;;;;6.65;1.80;;;16.50;99.90;;;;;;4924773;29;20024;-85
2022/06/13 03:41:31;;;;;;;5.90;1.92;;;16.50;99.90;;;;;;4924413;29;20031;-85
2022/06/13 03:44:02;;;;;;;6.28;2.05;;;16.50;99.90;;;;;;4924418;29;20028;-86
2022/06/13 03:46:38;;;;;;;6.45;1.48;;;16.50;99.90;;;;;;4925023;29;20020;-85
2022/06/13 03:49:16;;;;;;;6.85;1.85;;;16.40;99.90;;;;;;4924968;29;20016;-86
2022/06/13 03:51:45;;;;;;;6.35;1.95;;;16.50;99.90;;;;;;4918363;29;20028;-85
2022/06/13 03:54:16;;;;;;;6.70;1.92;;;16.50;99.90;;;;;;4924868;29;20008;-85
2022/06/13 03:56:55;;;;;;;7.05;1.67;;;16.40;99.90;;;;;;4924427;29;20047;-85
2022/06/13 03:59:28;;;;;;;5.93;2.30;;;16.40;99.90;;;;;;4924445;29;20040;-85
2022/06/13 04:01:59;;;;;;;8.32;2.20;;;16.50;99.90;;;;;;4924160;29;20092;-85
2022/06/13 04:04:33;;;;;;;5.95;2.15;;;16.40;99.90;;;;;;4939486;29;20103;-85
2022/06/13 04:07:01;;;;;;;7.78;2.05;;;16.30;99.90;;;;;;4939551;29;20205;-85
2022/06/13 04:09:39;;;;;;;7.93;1.77;;;16.20;99.90;;;;;;4939254;29;20020;-85
2022/06/13 04:12:23;;;;;;;7.35;1.80;;;16.30;99.90;;;;;;4924715;29;20017;-85
2022/06/13 04:15:30;;;;;;;8.30;2.22;;;16.30;99.90;;;;;;4922966;29;20220;-86
2022/06/13 04:18:19;;;;;;;6.75;1.80;;;16.20;99.90;;;;;;4940991;29;20055;-86
2022/06/13 04:21:13;;;;;;;7.63;1.60;;;16.20;99.90;;;;;;4924679;29;20059;-85
2022/06/13 04:23:50;;;;;;;9.97;2.03;;;16.20;99.90;;;;;;4921521;29;20020;-82
2022/06/13 04:26:44;;;;;;;9.70;2.05;;;16.30;99.90;;;;;;4942081;29;20232;-81
2022/06/13 04:29:22;;;;;;;9.93;1.85;;;16.30;99.90;;;;;;4916739;29;20036;-82
2022/06/13 04:31:49;;;;;;;6.10;1.75;;;16.30;99.90;;;;;;4926011;29;20044;-82
2022/06/13 04:34:20;;;;;;;10.82;2.00;;;16.20;99.90;;;;;;4923896;29;20032;-82
2022/06/13 04:36:47;;;;;;;8.90;2.22;;;16.10;99.90;;;;;;4920488;29;20030;-82
2022/06/13 04:39:18;;;;;;;10.40;2.28;;;16.20;99.90;;;;;;4917015;29;20028;-82
2022/06/13 04:41:45;;;;;;;7.47;2.10;;;16.10;99.90;;;;;;4916688;29;20020;-82
2022/06/13 04:44:18;;;;;;;8.88;1.80;;;16.10;99.90;;;;;;4916347;29;20075;-82
2022/06/13 04:46:45;;;;;;;6.93;1.67;;;16.10;99.90;;;;;;4915852;29;20040;-82
2022/06/13 04:49:27;;;;;;;7.78;2.08;;;16.10;99.90;;;;;;4916321;29;20029;-82
2022/06/13 04:51:55;;;;;;;7.95;2.13;;;16.10;99.90;;;;;;4915458;29;20028;-82
2022/06/13 04:55:01;;;;;;;7.05;1.90;;;16.10;99.90;;;;;;4913975;29;20016;-82
2022/06/13 04:57:28;;;;;;;17.85;1.88;;;16.10;99.90;;;;;;4889521;29;20073;-83
2022/06/13 04:59:54;;;;;;;8.32;1.85;;;16.20;99.90;;;;;;4938149;29;20320;-82
2022/06/13 05:02:34;;;;;;;8.60;2.00;;;16.20;99.90;;;;;;4927096;29;20031;-82
2022/06/13 05:05:00;;;;;;;9.25;1.98;;;16.20;99.90;;;;;;4926149;29;20028;-82
2022/06/13 05:07:26;;;;;;;6.88;2.10;;;16.20;99.90;;;;;;4926082;29;20059;-82
2022/06/13 05:09:57;;;;;;;7.75;2.40;;;16.20;99.90;;;;;;4927491;29;20260;-82
2022/06/13 05:12:32;;;;;;;5.30;2.05;;;16.30;99.90;;;;;;4926140;29;20032;-82
2022/06/13 05:15:23;;;;;;;7.85;2.15;;;16.30;99.90;;;;;;4925440;29;20099;-82
2022/06/13 05:18:18;;;;;;;7.88;2.03;;;16.30;99.90;;;;;;4925932;29;20055;-82
2022/06/13 05:20:59;;;;;;;7.85;1.92;;;16.30;99.90;;;;;;4923355;29;20052;-82
2022/06/13 05:23:43;;;;;;;6.03;1.65;;;16.30;99.90;;;;;;4926384;29;20315;-82
2022/06/13 05:26:09;;;;;;;8.57;1.95;;;16.30;99.90;;;;;;4926304;29;20020;-82
2022/06/13 05:28:38;;;;;;;11.48;2.25;;;16.30;99.90;;;;;;4926534;29;20055;-82
2022/06/13 05:31:19;;;;;;;6.05;2.38;;;16.40;99.90;;;;;;4921203;29;20058;-82
2022/06/13 05:33:46;;;;;;;9.02;2.22;;;16.40;99.90;;;;;;4926316;29;20039;-82
2022/06/13 05:36:21;;;;;;;5.65;2.05;;;16.50;99.90;;;;;;4926213;29;20028;-82
2022/06/13 05:38:49;;;;;;;6.35;1.70;;;16.50;99.90;;;;;;4923812;29;20064;-82
2022/06/13 05:41:15;;;;;;;8.45;2.33;;;16.50;99.90;;;;;;4925870;29;20205;-82
2022/06/13 05:43:41;;;;;;;10.82;2.53;;;16.50;99.90;;;;;;4940549;29;20091;-81
2022/06/13 05:46:08;;;;;;;8.27;2.25;;;16.70;99.90;;;;;;4926229;29;20028;-81
2022/06/13 05:48:34;;;;;;;7.10;1.85;;;16.70;99.90;;;;;;4922228;29;20032;-81
2022/06/13 05:51:00;;;;;;;6.47;2.10;;;16.70;99.90;;;;;;4916185;29;20338;-83
2022/06/13 05:53:27;;;;;;;5.78;1.90;;;16.70;99.90;;;;;;4915519;29;20031;-82
2022/06/13 05:55:56;;;;;;;8.05;2.53;;;16.80;99.90;;;;;;4915459;29;20583;-82
2022/06/13 05:58:24;;;;;;;10.52;2.25;;;16.90;99.90;;;;;;4913813;29;20028;-82
2022/06/13 06:00:57;;;;;;;7.20;2.00;;;16.80;99.90;;;;;;4915222;29;20375;-82
2022/06/13 06:03:23;;;;;;;7.78;1.83;;;16.80;99.90;;;;;;4915816;29;20429;-82
2022/06/13 06:05:49;;;;;;;10.23;2.70;;;17.00;99.90;;;;;;4915277;29;20028;-82
2022/06/13 06:08:19;;;;;;;7.72;2.22;;;16.90;99.90;;;;;;4915136;29;20027;-82
2022/06/13 06:10:47;;;;;;;6.63;1.92;;;16.90;99.90;;;;;;4913588;29;20039;-82
2022/06/13 06:13:14;;;;;;;8.90;2.10;;;17.10;99.90;;;;;;4912424;29;20024;-82
2022/06/13 06:15:41;;;;;;;9.45;1.70;;;17.10;99.90;;;;;;4913402;29;20028;-82
2022/06/13 06:18:08;;;;;;;5.80;1.70;;;17.30;99.90;;;;;;4910982;29;20097;-82
2022/06/13 06:20:34;;;;;;;7.35;2.00;;;17.40;99.90;;;;;;4912902;29;20379;-82
2022/06/13 06:23:00;;;;;;;7.80;2.50;;;17.40;99.90;;;;;;4929037;29;20485;-82
2022/06/13 06:25:26;;;;;;;8.60;1.95;;;17.30;99.90;;;;;;4915071;29;20036;-82
2022/06/13 06:27:51;;;;;;;9.75;2.35;;;17.40;99.90;;;;;;4915050;29;20405;-82
2022/06/13 06:30:18;;;;;;;8.32;2.40;;;17.40;99.90;;;;;;4913337;29;20063;-82
2022/06/13 06:32:44;;;;;;;11.65;2.10;;;17.40;99.90;;;;;;4920103;29;20040;-82
2022/06/13 06:35:11;;;;;;;8.82;2.53;;;17.50;99.90;;;;;;4914770;29;20465;-83
2022/06/13 06:37:45;;;;;;;6.95;2.15;;;17.60;99.90;;;;;;4914185;29;20416;-82
2022/06/13 06:40:12;;;;;;;11.02;2.30;;;17.50;99.90;;;;;;4910371;29;20607;-82
2022/06/13 06:42:38;;;;;;;9.02;1.90;;;17.60;99.90;;;;;;4914677;29;20544;-82
2022/06/13 06:45:04;;;;;;;10.98;2.60;;;17.60;99.90;;;;;;4914537;29;20152;-82
2022/06/13 06:47:30;;;;;;;10.20;2.08;;;17.70;99.90;;;;;;4914623;29;20028;-82
2022/06/13 06:49:56;;;;;;;8.98;1.58;;;17.90;99.90;;;;;;4914798;29;20489;-82
2022/06/13 06:52:21;;;;;;;10.20;2.45;;;17.90;99.90;;;;;;4914614;29;20031;-81
2022/06/13 07:00:17;;;;;;;7.20;2.15;;;18.10;99.70;;;;;;4914468;29;20039;-82
2022/06/13 07:02:43;;;;;;;7.25;1.80;;;18.10;99.80;;;;;;4914103;29;20012;-81
2022/06/13 07:05:11;;;;;;;7.93;1.88;;;18.20;99.70;;;;;;4914248;29;20040;-81
2022/06/13 07:07:37;;;;;;;7.75;1.80;;;18.20;99.90;;;;;;4914196;29;20024;-81
2022/06/13 07:10:03;;;;;;;8.35;1.88;;;18.30;99.90;;;;;;4914367;29;20032;-81
2022/06/13 07:12:28;;;;;;;9.38;1.85;;;18.20;99.20;;;;;;4914180;29;20119;-81
2022/06/13 07:14:54;;;;;;;9.85;2.33;;;18.30;99.20;;;;;;4914300;29;20443;-81
2022/06/13 07:17:21;;;;;;;6.40;1.77;;;18.40;99.10;;;;;;4914166;29;20461;-81
2022/06/13 07:19:47;;;;;;;10.45;2.28;;;18.60;98.90;;;;;;4910917;29;20021;-82
2022/06/13 07:22:19;;;;;;;12.48;2.53;;;18.70;99.20;;;;;;4913996;29;20031;-82
2022/06/13 07:24:46;;;;;;;7.32;1.88;;;18.70;98.60;;;;;;4913772;29;20024;-82
2022/06/13 07:27:13;;;;;;;8.90;1.80;;;18.80;98.40;;;;;;4914079;29;20032;-82
2022/06/13 07:29:39;;;;;;;7.97;1.90;;;18.90;98.00;;;;;;4913961;29;20583;-82
2022/06/13 07:32:18;;;;;;;7.43;2.08;;;19.00;97.20;;;;;;4913606;29;20054;-82
2022/06/13 07:34:48;;;;;;;10.00;2.17;;;19.00;97.30;;;;;;4914005;29;20024;-81
2022/06/13 07:38:16;;;;;;;8.95;1.83;;;19.00;97.90;;;;;;4913641;29;20036;-81
2022/06/13 07:40:05;;;;;;;7.78;2.15;;;19.10;97.40;;;;;;4913539;29;20135;-82
2022/06/13 07:42:44;;;;;;;7.20;1.90;;;19.10;97.70;;;;;;4913488;29;20544;-82
2022/06/13 07:45:16;;;;;;;7.50;1.95;;;19.20;97.10;;;;;;4913402;29;20050;-81
2022/06/13 07:47:43;;;;;;;11.68;1.98;;;19.30;97.30;;;;;;4913452;29;20028;-81
2022/06/13 07:50:13;;;;;;;7.10;2.03;;;19.40;96.90;;;;;;4913656;29;20075;-82
2022/06/13 07:52:39;;;;;;;9.80;1.92;;;19.40;97.00;;;;;;4913658;29;20527;-82
2022/06/13 07:55:05;;;;;;;9.52;2.17;;;19.60;97.10;;;;;;4913843;29;20036;-82
2022/06/13 07:57:31;;;;;;;8.68;1.85;;;19.70;96.70;;;;;;4913320;29;20049;-82
2022/06/13 07:59:57;;;;;;;4.50;1.55;;;19.60;96.50;;;;;;4916080;29;20474;-82
2022/06/13 08:02:26;;;;;;;8.25;1.55;;;19.70;96.10;;;;;;4913369;29;20063;-82
2022/06/13 08:04:52;;;;;;;8.20;1.95;;;19.90;96.20;;;;;;4913555;29;20461;-82
2022/06/13 08:07:17;;;;;;;7.25;1.50;;;20.00;95.50;;;;;;4913383;29;20071;-82
2022/06/13 08:09:43;;;;;;;8.70;1.85;;;20.10;95.60;;;;;;4913549;29;20036;-82
2022/06/13 08:12:12;;;;;;;5.82;1.83;;;20.10;95.50;;;;;;4913721;29;20120;-82
2022/06/13 08:14:39;;;;;;;13.75;2.33;;;20.10;95.60;;;;;;4913175;29;20028;-82
2022/06/13 08:17:04;;;;;;;7.07;1.65;;;20.20;95.10;;;;;;4913462;29;20043;-82
2022/06/13 08:19:30;;;;;;;7.45;1.77;;;20.30;95.40;;;;;;4913321;29;20025;-82
2022/06/13 08:21:56;;;;;;;14.48;1.67;;;20.40;95.10;;;;;;4913142;29;20027;-82
2022/06/13 08:24:22;;;;;;;4.88;1.50;;;20.50;94.70;;;;;;4913196;29;20111;-82
2022/06/13 08:26:48;;;;;;;7.50;1.30;;;20.50;94.90;;;;;;4913178;29;20104;-82
2022/06/13 08:29:14;;;;;;;8.75;1.77;;;20.60;94.10;;;;;;4913514;29;20031;-82
2022/06/13 08:31:40;;;;;;;10.90;2.35;;;20.70;94.50;;;;;;4912934;29;20044;-82
2022/06/13 08:34:07;;;;;;;6.18;1.85;;;20.90;94.70;;;;;;4913355;29;20367;-82
2022/06/13 08:36:32;;;;;;;7.97;1.98;;;20.90;94.10;;;;;;4913187;29;20079;-82
2022/06/13 08:38:58;;;;;;;12.00;2.40;;;21.00;93.70;;;;;;4913186;29;20477;-82
2022/06/13 08:41:44;;;;;;;12.52;1.73;;;21.00;93.60;;;;;;4913315;29;20103;-81
2022/06/13 08:44:46;;;;;;;6.38;1.30;;;21.10;93.80;;;;;;4913126;29;20079;-82
2022/06/13 08:47:27;;;;;;;7.60;1.90;;;21.20;93.60;;;;;;4912213;29;20509;-82
2022/06/13 08:49:55;;;;;;;8.30;1.60;;;21.40;93.40;;;;;;4908833;29;20029;-82
2022/06/13 08:52:33;;;;;;;5.28;1.40;;;21.50;93.00;;;;;;4912400;29;20023;-81
2022/06/13 08:55:19;;;;;;;7.93;1.48;;;21.50;92.50;;;;;;4907520;29;20525;-82
2022/06/13 08:58:12;;;;;;;10.02;1.85;;;21.50;92.30;;;;;;4913131;29;20040;-82
2022/06/13 09:00:44;;;;;;;6.72;1.38;;;21.60;93.20;;;;;;4914289;29;20529;-82
2022/06/13 09:03:16;;;;;;;6.80;1.58;;;21.60;92.80;;;;;;4909466;29;20067;-82
2022/06/13 09:06:04;;;;;;;6.07;1.67;;;21.60;92.70;;;;;;4916346;29;20084;-82
2022/06/13 09:08:37;;;;;;;6.20;1.75;;;21.80;93.10;;;;;;4916450;29;20128;-82
2022/06/13 09:11:07;;;;;;;7.40;1.55;;;21.90;92.80;;;;;;4916265;29;20030;-82
2022/06/13 09:14:09;;;;;;;7.55;1.70;;;22.00;92.60;;;;;;4916664;29;20087;-82
2022/06/13 09:16:36;;;;;;;8.25;1.73;;;22.10;92.30;;;;;;4913390;29;20478;-82
2022/06/13 09:19:36;;;;;;;15.15;1.77;;;22.20;91.90;;;;;;4915777;29;20111;-82
2022/06/13 09:22:04;;;;;;;4.63;1.58;;;22.10;91.60;;;;;;4916363;29;20115;-82
2022/06/13 09:24:44;;;;;;;4.90;1.50;;;22.20;91.00;;;;;;4915990;29;20549;-82
2022/06/13 09:27:19;;;;;;;4.57;1.30;;;22.30;91.50;;;;;;4911025;29;20067;-82
2022/06/13 09:29:55;;;;;;;6.68;1.60;;;22.40;91.30;;;;;;4915718;29;20494;-82
2022/06/13 09:32:27;;;;;;;5.63;1.55;;;22.50;91.40;;;;;;4912896;29;20075;-82
2022/06/13 09:34:58;;;;;;;9.93;1.70;;;22.60;90.80;;;;;;4916186;29;20025;-82
2022/06/13 09:37:53;;;;;;;6.35;1.65;;;22.60;91.40;;;;;;4916026;29;20043;-82
2022/06/13 09:40:30;;;;;;;10.63;1.63;;;22.70;90.50;;;;;;4927510;29;20036;-82
2022/06/13 09:43:12;;;;;;;5.78;1.40;;;22.80;90.40;;;;;;4916053;29;20020;-82
2022/06/13 09:45:39;;;;;;;4.45;1.38;;;22.80;89.70;;;;;;4915852;29;20028;-82
2022/06/13 09:48:13;;;;;;;7.47;1.80;;;22.90;89.10;;;;;;4915660;29;20184;-82
2022/06/13 09:50:55;;;;;;;5.85;1.50;;;22.90;89.40;;;;;;4915494;29;20091;-82
2022/06/13 09:53:50;;;;;;;6.35;1.30;;;23.00;89.30;;;;;;4909718;29;20028;-82
2022/06/13 09:56:21;;;;;;;5.53;1.77;;;23.00;90.00;;;;;;4915446;29;20083;-82
2022/06/13 09:58:50;;;;;;;5.63;1.60;;;23.20;90.50;;;;;;4915416;29;20273;-82
2022/06/13 10:01:21;;;;;;;9.35;1.40;;;23.20;89.20;;;;;;4915424;29;20047;-82
2022/06/13 10:04:05;;;;;;;4.82;1.60;;;23.30;89.60;;;;;;4915389;29;20581;-82
2022/06/13 10:06:34;;;;;;;4.72;1.42;;;23.40;90.00;;;;;;4909709;29;20036;-82
2022/06/13 10:09:36;;;;;;;9.02;1.65;;;23.50;90.00;;;;;;4915112;29;20427;-82
2022/06/13 10:12:12;;;;;;;6.05;1.80;;;23.70;89.80;;;;;;4914127;29;20020;-82
2022/06/13 10:15:16;;;;;;;7.75;1.30;;;23.90;89.40;;;;;;4914935;29;20494;-82
2022/06/13 10:18:14;;;;;;;4.82;1.67;;;24.00;88.30;;;;;;4913105;29;20540;-82
2022/06/13 10:20:43;;;;;;;10.60;1.20;;;24.00;88.40;;;;;;4910739;29;20028;-84
2022/06/13 10:23:22;;;;;;;6.95;1.27;;;24.00;87.80;;;;;;4915375;29;20035;-84
2022/06/13 10:25:56;;;;;;;6.13;1.20;;;24.10;88.70;;;;;;4914885;29;20171;-84
2022/06/13 10:28:22;;;;;;;6.68;1.40;;;24.20;88.70;;;;;;4914799;29;20082;-85
2022/06/13 10:31:05;;;;;;;5.07;1.60;;;24.30;88.60;;;;;;4914894;29;20032;-84
2022/06/13 10:33:52;;;;;;;6.28;1.40;;;24.40;87.70;;;;;;4912379;29;20052;-84
2022/06/13 10:36:39;;;;;;;6.40;1.73;;;24.30;87.50;;;;;;4909721;29;20087;-84
2022/06/13 10:39:05;;;;;;;5.43;1.65;;;24.30;87.90;;;;;;4912376;29;20055;-84
2022/06/13 10:41:36;;;;;;;6.43;1.50;;;24.50;87.90;;;;;;4912609;29;20028;-84
2022/06/13 10:44:03;;;;;;;5.50;1.65;;;24.60;86.80;;;;;;4913620;29;20390;-84
2022/06/13 10:46:29;;;;;;;8.80;1.85;;;24.80;86.10;;;;;;4913757;29;20161;-85
2022/06/13 10:49:23;;;;;;;8.32;1.50;;;24.80;86.60;;;;;;4913637;29;20171;-84
2022/06/13 10:51:51;;;;;;;5.35;1.73;;;24.90;86.40;;;;;;4907997;29;20055;-84
2022/06/13 10:54:26;;;;;;;4.03;1.38;;;25.00;85.30;;;;;;4910164;29;20131;-84
2022/06/13 10:56:56;;;;;;;7.05;1.63;;;25.10;84.80;;;;;;4913598;29;20165;-85
2022/06/13 10:59:31;;;;;;;8.35;1.58;;;25.20;85.10;;;;;;4913355;29;20016;-86
2022/06/13 11:02:05;;;;;;;4.20;1.45;;;25.20;83.60;;;;;;4913434;29;20474;-86
2022/06/13 11:04:32;;;;;;;;;;;25.30;84.20;;;;;;4913740;29;20032;-86
2022/06/13 11:07:02;;;;;;;5.90;1.20;;;25.40;85.50;;;;;;4913722;29;19907;-86
2022/06/13 11:09:36;;;;;;;4.72;1.55;;;25.60;82.40;;;;;;4913207;29;20094;-86
2022/06/13 11:12:16;;;;;;;3.65;1.10;;;25.70;83.10;;;;;;4913817;29;20339;-86
2022/06/13 11:23:27;;;;;;;4.93;1.30;;;26.00;82.20;;;;;;4912662;29;20039;-86
2022/06/13 11:25:58;;;;;;;4.57;1.02;;;26.10;79.50;;;;;;4913191;29;20024;-86
2022/06/13 11:28:27;;;;;;;7.75;1.48;;;26.20;78.90;;;;;;4913092;29;20253;-86
2022/06/13 11:33:51;;;;;;;4.82;1.30;;;26.30;77.90;;;;;;5095201;27;20132;-85
2022/06/13 11:36:18;;;;;;;5.60;1.45;;;26.30;76.00;;;;;;5075345;28;20060;-85
2022/06/13 11:38:57;;;;;;;7.82;1.30;;;26.40;75.60;;;;;;5071998;28;20435;-85
2022/06/13 11:41:43;;;;;;;4.97;1.10;;;26.50;78.20;;;;;;5068791;28;20024;-85
2022/06/13 11:44:12;;;;;;;4.55;1.08;;;26.70;76.90;;;;;;5080372;28;20017;-85
2022/06/13 11:47:02;;;;;;;4.80;1.50;;;26.90;75.10;;;;;;5067228;28;20060;-85
2022/06/13 11:49:32;;;;;;;3.20;0.90;;;27.10;73.70;;;;;;5073330;28;20062;-85
2022/06/13 11:52:10;;;;;;;5.03;1.30;;;27.20;72.70;;;;;;5072823;28;20522;-85
2022/06/13 11:54:52;;;;;;;4.80;1.55;;;27.30;73.80;;;;;;5074746;28;20028;-85
2022/06/13 11:57:29;;;;;;;3.55;1.33;;;27.30;73.90;;;;;;5073264;28;20510;-85
2022/06/13 12:00:06;;;;;;;5.10;1.20;;;27.50;75.00;;;;;;5069969;28;20040;-85
2022/06/13 12:02:39;;;;;;;4.28;1.23;;;27.70;74.00;;;;;;5071719;28;20511;-85
2022/06/13 12:05:19;;;;;;;4.20;1.05;;;27.80;74.40;;;;;;5068474;28;20021;-85
2022/06/13 12:08:14;;;;;;;4.53;1.30;;;27.90;72.90;;;;;;5082848;28;20137;-85
2022/06/13 12:10:51;;;;;;;5.13;1.20;;;28.00;70.90;;;;;;5084928;28;20031;-85
2022/06/13 12:13:20;;;;;;;4.68;1.00;;;27.80;72.60;;;;;;5077522;28;20032;-85
2022/06/13 12:16:09;;;;;;;4.68;1.30;;;27.90;72.50;;;;;;5072748;28;20028;-85
2022/06/13 12:18:54;;;;;;;6.47;1.30;;;28.10;72.90;;;;;;5070544;28;20060;-85
2022/06/13 12:21:26;;;;;;;2.95;1.00;;;28.40;73.70;;;;;;5074740;28;20032;-85
2022/06/13 12:24:26;;;;;;;2.03;0.85;;;28.40;68.20;;;;;;5069770;28;20025;-85
2022/06/13 12:27:11;;;;;;;2.65;0.82;;;28.50;68.80;;;;;;5072265;28;20066;-85
2022/06/13 12:30:09;;;;;;;6.90;1.30;;;28.70;70.60;;;;;;5078541;28;20032;-85
2022/06/13 12:32:40;;;;;;;4.15;1.17;;;28.80;69.80;;;;;;5088992;28;20495;-85
2022/06/13 12:35:44;;;;;;;2.55;1.15;;;29.10;68.30;;;;;;5091568;28;20063;-84
2022/06/13 12:38:19;;;;;;;2.08;0.82;;;29.30;69.70;;;;;;5075729;28;20044;-85
2022/06/13 12:41:06;;;;;;;5.72;1.00;;;29.30;68.90;;;;;;5073825;28;20064;-85
2022/06/13 12:43:37;;;;;;;4.80;0.90;;;29.50;69.90;;;;;;5088900;28;20025;-85
2022/06/13 12:46:12;;;;;;;6.05;1.10;;;29.70;69.00;;;;;;5072737;28;20024;-84
2022/06/13 12:49:06;;;;;;;5.03;1.20;;;29.80;67.50;;;;;;5079976;28;20029;-85
2022/06/13 12:51:44;;;;;;;4.35;1.27;;;29.90;67.90;;;;;;5079363;28;20024;-84
2022/06/13 12:54:38;;;;;;;4.15;1.15;;;30.10;67.10;;;;;;5076956;28;20028;-85
2022/06/13 12:57:47;;;;;;;6.30;1.50;;;30.30;65.90;;;;;;5077203;28;20021;-84
2022/06/13 13:00:28;;;;;;;4.90;1.20;;;30.70;64.90;;;;;;5075907;28;20090;-85
2022/06/13 13:02:53;;;;;;;5.22;1.25;;;30.80;66.00;;;;;;5074763;28;20025;-85
2022/06/13 13:05:34;;;;;;;3.88;0.65;;;31.00;63.40;;;;;;5074507;28;20047;-85
2022/06/13 13:08:05;;;;;;;4.68;1.35;;;31.10;62.50;;;;;;5085537;28;20029;-84
2022/06/13 13:10:51;;;;;;;7.10;1.25;;;31.40;63.20;;;;;;5072775;28;20565;-84
2022/06/13 13:13:38;;;;;;;3.40;1.10;;;31.50;63.30;;;;;;5078541;28;20506;-84
2022/06/13 13:16:37;;;;;;;7.38;1.48;;;31.80;64.20;;;;;;5080953;28;20043;-84
2022/06/13 13:19:25;;;;;;;3.28;0.82;;;32.30;64.10;;;;;;5077340;28;20033;-84
2022/06/13 13:21:53;;;;;;;2.00;0.50;;;33.00;62.50;;;;;;5076308;28;20094;-84
2022/06/13 13:24:34;;;;;;;1.75;0.60;;;33.40;61.10;;;;;;5076253;28;20214;-84
2022/06/13 13:27:04;;;;;;;3.13;0.98;;;33.80;61.00;;;;;;5079715;28;20020;-84
2022/06/13 13:29:37;;;;;;;4.63;1.25;;;34.70;60.00;;;;;;5085171;28;20054;-84
2022/06/13 13:32:23;;;;;;;5.05;0.98;;;35.40;59.40;;;;;;5086635;28;20048;-84
2022/06/13 13:35:15;;;;;;;5.20;1.15;;;37.10;58.90;;;;;;5075566;28;20020;-84
2022/06/13 13:38:11;;;;;;;4.57;1.10;;;38.70;57.40;;;;;;5074470;28;20480;-84
2022/06/13 13:40:52;;;;;;;2.65;1.05;;;40.30;55.30;;;;;;5075687;28;20027;-84
2022/06/13 13:43:37;;;;;;;3.25;1.13;;;41.70;54.60;;;;;;5073352;28;20490;-84
2022/06/13 13:46:02;;;;;;;3.95;1.02;;;43.00;52.50;;;;;;5078302;28;20020;-84